Time;durP1;ratioP1;P1;durP2;ratioP2;P2;SDS_P1;SDS_P2;PMS_P1;PMS_P2;Temp;Humidity;BMP_temperature;BMP_pressure;BME280_temperature;BME280_humidity;BME280_pressure;Samples;Min_cycle;Max_cycle;Signal;HPM_P1;HPM_P2
2024/01/18 00:01:30;;;;;;;16.58;8.75;;;-1.70;99.90;;;;;;5078828;28;20055;-62
2024/01/18 00:03:56;;;;;;;18.92;9.63;;;-1.70;99.90;;;;;;5077660;28;20036;-62
2024/01/18 00:06:21;;;;;;;17.95;10.07;;;-1.70;99.90;;;;;;5073499;28;20044;-62
2024/01/18 00:08:47;;;;;;;16.25;8.95;;;-1.70;99.90;;;;;;5082212;28;20064;-63
2024/01/18 00:11:12;;;;;;;18.85;9.43;;;-1.70;99.90;;;;;;5078685;28;20064;-62
2024/01/18 00:13:39;;;;;;;17.48;9.57;;;-1.70;99.90;;;;;;5082543;28;20039;-61
2024/01/18 00:16:04;;;;;;;18.73;9.63;;;-1.70;99.90;;;;;;5076515;28;20486;-62
2024/01/18 00:18:30;;;;;;;22.15;10.93;;;-1.70;99.90;;;;;;5069118;28;20048;-59
2024/01/18 00:20:56;;;;;;;21.20;11.05;;;-1.60;99.90;;;;;;5059268;28;20129;-60
2024/01/18 00:23:22;;;;;;;20.85;10.90;;;-1.70;99.90;;;;;;5068821;28;20045;-61
2024/01/18 00:25:47;;;;;;;19.48;10.55;;;-1.60;99.90;;;;;;5065726;28;20044;-61
2024/01/18 00:28:13;;;;;;;18.65;9.93;;;-1.60;99.90;;;;;;5067568;28;20028;-58
2024/01/18 00:30:38;;;;;;;18.90;9.80;;;-1.60;99.90;;;;;;5064453;28;20435;-59
2024/01/18 00:33:04;;;;;;;20.90;11.02;;;-1.50;99.90;;;;;;5066586;28;20043;-61
2024/01/18 00:35:30;;;;;;;23.27;11.63;;;-1.60;99.90;;;;;;5062393;28;20428;-61
2024/01/18 00:37:55;;;;;;;27.38;12.90;;;-1.60;99.90;;;;;;5068138;28;20105;-61
2024/01/18 00:40:21;;;;;;;21.13;11.25;;;-1.60;99.90;;;;;;5067229;28;20210;-61
2024/01/18 00:42:46;;;;;;;31.52;12.95;;;-1.60;99.90;;;;;;5068487;28;20449;-61
2024/01/18 00:45:12;;;;;;;23.60;12.00;;;-1.60;99.90;;;;;;5067648;28;20044;-61
2024/01/18 00:47:37;;;;;;;22.55;11.48;;;-1.60;99.90;;;;;;5068082;28;20029;-61
2024/01/18 00:50:04;;;;;;;24.50;10.90;;;-1.60;99.90;;;;;;5068893;28;20488;-60
2024/01/18 00:52:30;;;;;;;22.25;11.48;;;-1.60;99.90;;;;;;5066575;28;20047;-61
2024/01/18 00:54:55;;;;;;;24.27;11.40;;;-1.60;99.90;;;;;;5068745;28;20397;-60
2024/01/18 00:57:21;;;;;;;24.17;11.50;;;-1.60;99.90;;;;;;5068041;28;20049;-61
2024/01/18 00:59:46;;;;;;;24.90;12.60;;;-1.60;99.90;;;;;;5066188;28;20045;-61
2024/01/18 01:02:12;;;;;;;25.67;10.98;;;-1.60;99.90;;;;;;5065480;28;20036;-60
2024/01/18 01:04:37;;;;;;;22.25;12.18;;;-1.60;99.90;;;;;;5071470;28;20035;-59
2024/01/18 01:07:03;;;;;;;24.88;12.85;;;-1.60;99.90;;;;;;5066401;28;20170;-59
2024/01/18 01:09:29;;;;;;;24.58;11.68;;;-1.60;99.90;;;;;;5068515;28;20044;-61
2024/01/18 01:11:54;;;;;;;23.73;12.30;;;-1.60;99.90;;;;;;5066286;28;20425;-61
2024/01/18 01:14:20;;;;;;;22.73;11.55;;;-1.60;99.90;;;;;;5068202;28;20040;-61
2024/01/18 01:16:46;;;;;;;22.23;11.13;;;-1.60;99.90;;;;;;5071690;28;20051;-59
2024/01/18 01:19:11;;;;;;;23.27;12.02;;;-1.60;99.90;;;;;;5063080;28;20071;-61
2024/01/18 01:21:37;;;;;;;21.95;11.20;;;-1.70;99.90;;;;;;5066080;28;20486;-61
2024/01/18 01:24:03;;;;;;;23.63;12.13;;;-1.70;99.90;;;;;;5067268;28;20037;-59
2024/01/18 01:26:28;;;;;;;20.77;11.48;;;-1.70;99.90;;;;;;5065335;28;20504;-61
2024/01/18 01:28:54;;;;;;;22.88;11.57;;;-1.80;99.90;;;;;;5068054;28;20127;-61
2024/01/18 01:31:19;;;;;;;19.17;10.60;;;-1.80;99.90;;;;;;5067592;28;20135;-60
2024/01/18 01:33:46;;;;;;;22.25;11.00;;;-1.80;99.90;;;;;;5067219;28;20040;-57
2024/01/18 01:36:12;;;;;;;23.15;11.10;;;-1.70;99.90;;;;;;5066729;28;20051;-61
2024/01/18 01:38:38;;;;;;;22.38;11.85;;;-1.70;99.90;;;;;;5071997;28;20690;-62
2024/01/18 01:41:03;;;;;;;23.90;11.23;;;-1.70;99.90;;;;;;5061776;28;20098;-61
2024/01/18 01:43:30;;;;;;;28.83;13.40;;;-1.70;99.90;;;;;;5066994;28;20036;-58
2024/01/18 01:45:56;;;;;;;26.27;13.57;;;-1.70;99.90;;;;;;5066431;28;20048;-60
2024/01/18 01:48:21;;;;;;;20.77;10.70;;;-1.70;99.90;;;;;;5067145;28;20546;-60
2024/01/18 01:50:47;;;;;;;20.23;9.07;;;-1.70;99.90;;;;;;5064410;28;20064;-61
2024/01/18 01:53:16;;;;;;;15.00;8.48;;;-1.70;99.90;;;;;;5066390;28;20044;-62
2024/01/18 01:55:43;;;;;;;24.20;12.88;;;-1.80;99.90;;;;;;5066614;28;20471;-61
2024/01/18 01:58:11;;;;;;;22.20;10.63;;;-1.80;99.90;;;;;;5067457;28;20033;-61
2024/01/18 02:00:37;;;;;;;26.80;13.00;;;-1.80;99.90;;;;;;5064276;28;20060;-62
2024/01/18 02:03:03;;;;;;;20.13;9.20;;;-1.90;99.90;;;;;;5065384;28;20064;-60
2024/01/18 02:05:32;;;;;;;19.33;8.90;;;-1.80;99.90;;;;;;5073227;28;20575;-58
2024/01/18 02:07:57;;;;;;;13.65;5.35;;;-1.90;99.90;;;;;;5065265;28;20064;-61
2024/01/18 02:10:23;;;;;;;9.82;4.30;;;-1.90;99.90;;;;;;5065536;28;20072;-60
2024/01/18 02:12:52;;;;;;;9.88;5.18;;;-1.90;99.90;;;;;;5066692;28;20074;-60
2024/01/18 02:15:18;;;;;;;20.70;9.95;;;-1.90;99.90;;;;;;5066453;28;20040;-61
2024/01/18 02:17:44;;;;;;;21.10;9.63;;;-1.90;99.90;;;;;;5063531;28;20047;-59
2024/01/18 02:20:10;;;;;;;26.98;11.25;;;-1.90;99.90;;;;;;5072327;28;20036;-56
2024/01/18 02:22:43;;;;;;;23.02;11.55;;;-1.90;99.90;;;;;;5063927;28;20409;-60
2024/01/18 02:25:22;;;;;;;22.33;9.75;;;-1.80;99.90;;;;;;5066377;28;20068;-58
2024/01/18 02:27:48;;;;;;;16.55;8.85;;;-1.80;99.90;;;;;;5066595;28;20041;-61
2024/01/18 02:30:14;;;;;;;16.08;8.20;;;-1.80;99.90;;;;;;5065169;28;20413;-60
2024/01/18 02:32:40;;;;;;;15.10;6.78;;;-1.90;99.90;;;;;;5064994;28;20053;-61
2024/01/18 02:35:06;;;;;;;14.75;7.47;;;-1.80;99.90;;;;;;5071532;28;20044;-61
2024/01/18 02:37:32;;;;;;;18.13;7.72;;;-1.80;99.90;;;;;;5065398;28;20044;-61
2024/01/18 02:39:57;;;;;;;13.90;7.35;;;-1.70;99.90;;;;;;5066537;28;20084;-60
2024/01/18 02:42:23;;;;;;;15.60;7.57;;;-1.70;99.90;;;;;;5062276;28;20102;-60
2024/01/18 02:44:50;;;;;;;18.10;8.27;;;-1.60;99.90;;;;;;5066463;28;20047;-62
2024/01/18 02:47:15;;;;;;;18.20;9.65;;;-1.70;99.90;;;;;;5063934;28;20044;-62
2024/01/18 02:49:41;;;;;;;25.17;12.52;;;-1.70;99.90;;;;;;5066234;28;20046;-59
2024/01/18 02:52:06;;;;;;;31.35;13.60;;;-1.70;99.90;;;;;;5062518;28;20131;-58
2024/01/18 02:54:32;;;;;;;25.83;12.85;;;-1.80;99.90;;;;;;5064632;28;20631;-59
2024/01/18 02:56:57;;;;;;;29.77;15.07;;;-1.80;99.90;;;;;;5064464;28;20107;-62
2024/01/18 02:59:23;;;;;;;29.00;14.77;;;-1.80;99.90;;;;;;5066150;28;20041;-59
2024/01/18 03:01:48;;;;;;;28.48;13.65;;;-1.80;99.90;;;;;;5062975;28;21393;-59
2024/01/18 03:04:14;;;;;;;28.85;12.70;;;-1.80;99.90;;;;;;5065992;28;20028;-61
2024/01/18 03:06:40;;;;;;;26.50;13.80;;;-1.70;99.90;;;;;;5065388;28;20063;-60
2024/01/18 03:09:05;;;;;;;29.45;15.50;;;-1.80;99.90;;;;;;5065528;28;20043;-59
2024/01/18 03:11:31;;;;;;;29.55;14.32;;;-1.90;99.90;;;;;;5068252;28;20748;-62
2024/01/18 03:13:57;;;;;;;30.20;14.75;;;-1.90;99.90;;;;;;5065971;28;20068;-61
2024/01/18 03:16:22;;;;;;;30.95;14.45;;;-1.80;99.90;;;;;;5065888;28;20048;-59
2024/01/18 03:18:48;;;;;;;30.23;15.40;;;-1.80;99.90;;;;;;5061968;28;20044;-62
2024/01/18 03:21:14;;;;;;;33.88;17.02;;;-1.80;99.90;;;;;;5062979;28;20381;-62
2024/01/18 03:23:40;;;;;;;38.78;18.98;;;-1.70;99.90;;;;;;5065067;28;20037;-60
2024/01/18 03:26:05;;;;;;;34.40;18.02;;;-1.70;99.90;;;;;;5063596;28;20109;-62
2024/01/18 03:28:31;;;;;;;27.02;14.20;;;-1.70;99.90;;;;;;5064869;28;20496;-62
2024/01/18 03:30:57;;;;;;;26.98;14.73;;;-1.90;99.90;;;;;;5059528;28;20607;-61
2024/01/18 03:33:23;;;;;;;30.80;14.95;;;-1.90;99.90;;;;;;5063885;28;20045;-61
2024/01/18 03:35:48;;;;;;;28.70;14.15;;;-1.90;99.90;;;;;;5065160;28;20150;-61
2024/01/18 03:38:14;;;;;;;28.90;15.68;;;-2.00;99.90;;;;;;5064829;28;20511;-60
2024/01/18 03:40:40;;;;;;;29.55;15.05;;;-2.00;99.90;;;;;;5063742;28;20705;-59
2024/01/18 03:43:05;;;;;;;34.25;16.88;;;-2.10;99.90;;;;;;5065595;28;20558;-63
2024/01/18 03:45:31;;;;;;;33.15;17.38;;;-2.20;99.90;;;;;;5064319;28;20048;-60
2024/01/18 03:47:57;;;;;;;32.45;15.93;;;-2.30;99.90;;;;;;5064037;28;20033;-60
2024/01/18 03:50:22;;;;;;;37.92;17.10;;;-2.40;99.90;;;;;;5067406;28;20084;-58
2024/01/18 03:52:48;;;;;;;36.78;16.42;;;-2.30;99.90;;;;;;5066845;28;20484;-62
2024/01/18 03:55:13;;;;;;;31.77;16.15;;;-2.30;99.90;;;;;;5069113;28;20107;-61
2024/01/18 03:57:40;;;;;;;32.17;15.65;;;-2.20;99.90;;;;;;5067776;28;20036;-61
2024/01/18 04:00:07;;;;;;;35.92;15.70;;;-2.20;99.90;;;;;;5068056;28;20048;-62
2024/01/18 04:02:32;;;;;;;33.67;15.05;;;-2.20;99.90;;;;;;5065356;28;20131;-62
2024/01/18 04:04:58;;;;;;;31.27;15.32;;;-2.20;99.90;;;;;;5070059;28;20171;-59
2024/01/18 04:07:23;;;;;;;30.10;15.65;;;-2.10;99.90;;;;;;5071696;28;20044;-59
2024/01/18 04:09:49;;;;;;;35.30;16.48;;;-2.10;99.90;;;;;;5069220;28;20179;-60
2024/01/18 04:12:14;;;;;;;35.13;16.67;;;-2.10;99.90;;;;;;5068418;28;20123;-61
2024/01/18 04:14:43;;;;;;;28.85;14.25;;;-2.10;99.90;;;;;;5068503;28;20032;-62
2024/01/18 04:17:11;;;;;;;28.77;13.98;;;-2.10;99.90;;;;;;5067400;28;20051;-61
2024/01/18 04:19:38;;;;;;;25.80;13.55;;;-2.10;99.90;;;;;;5067970;28;20404;-60
2024/01/18 04:22:04;;;;;;;21.23;11.55;;;-2.20;99.90;;;;;;5066669;28;20044;-61
2024/01/18 04:24:29;;;;;;;27.92;13.82;;;-2.20;99.90;;;;;;5072473;28;20032;-61
2024/01/18 04:26:55;;;;;;;20.08;10.68;;;-2.20;99.90;;;;;;5068338;28;20048;-59
2024/01/18 04:29:21;;;;;;;22.90;12.00;;;-2.20;99.90;;;;;;5068294;28;20078;-60
2024/01/18 04:31:46;;;;;;;27.05;12.43;;;-2.20;99.90;;;;;;5066498;28;20119;-62
2024/01/18 04:34:12;;;;;;;26.77;12.23;;;-2.20;99.90;;;;;;5067585;28;20063;-60
2024/01/18 04:36:38;;;;;;;22.17;12.43;;;-2.30;99.90;;;;;;5068053;28;20041;-62
2024/01/18 04:39:03;;;;;;;24.00;12.23;;;-2.20;99.90;;;;;;5068595;28;20044;-61
2024/01/18 04:41:29;;;;;;;25.25;12.63;;;-2.20;99.90;;;;;;5067289;28;20115;-62
2024/01/18 04:43:54;;;;;;;30.25;11.98;;;-2.10;99.90;;;;;;5069042;28;20044;-62
2024/01/18 04:46:22;;;;;;;22.58;12.30;;;-2.20;99.90;;;;;;5067578;28;20120;-62
2024/01/18 04:48:48;;;;;;;30.60;13.95;;;-2.20;99.90;;;;;;5068599;28;20040;-61
2024/01/18 04:51:13;;;;;;;30.77;16.52;;;-2.20;99.90;;;;;;5063882;28;20507;-61
2024/01/18 04:53:39;;;;;;;40.20;20.85;;;-2.20;99.90;;;;;;5068739;28;20049;-61
2024/01/18 04:56:06;;;;;;;43.28;20.52;;;-2.10;99.90;;;;;;5067430;28;20052;-61
2024/01/18 04:58:32;;;;;;;47.70;20.77;;;-2.10;99.90;;;;;;5068397;28;20127;-62
2024/01/18 05:00:57;;;;;;;39.03;20.50;;;-2.20;99.90;;;;;;5066629;28;20112;-61
2024/01/18 05:03:23;;;;;;;38.03;20.33;;;-2.20;99.90;;;;;;5066111;28;20040;-62
2024/01/18 05:05:48;;;;;;;39.10;19.65;;;-2.20;99.90;;;;;;5061999;28;20040;-61
2024/01/18 05:08:14;;;;;;;35.05;17.75;;;-2.30;99.90;;;;;;5068019;28;20612;-61
2024/01/18 05:10:40;;;;;;;31.75;15.25;;;-2.30;99.90;;;;;;5066770;28;20163;-60
2024/01/18 05:13:06;;;;;;;32.08;15.52;;;-2.30;99.90;;;;;;5068037;28;20048;-61
2024/01/18 05:15:32;;;;;;;26.55;13.82;;;-2.30;99.90;;;;;;5065936;28;20040;-63
2024/01/18 05:17:59;;;;;;;31.90;14.35;;;-2.30;99.90;;;;;;5069949;28;20035;-62
2024/01/18 05:20:25;;;;;;;28.83;14.00;;;-2.20;99.90;;;;;;5065512;28;20041;-59
2024/01/18 05:22:51;;;;;;;32.75;14.23;;;-2.30;99.90;;;;;;5065037;28;20151;-61
2024/01/18 05:25:16;;;;;;;25.83;13.15;;;-2.30;99.90;;;;;;5067231;28;20124;-57
2024/01/18 05:27:42;;;;;;;29.48;15.20;;;-2.20;99.90;;;;;;5066318;28;20072;-61
2024/01/18 05:30:09;;;;;;;25.73;13.98;;;-2.20;99.90;;;;;;5067000;28;20029;-59
2024/01/18 05:32:35;;;;;;;34.60;15.40;;;-2.20;99.90;;;;;;5062943;28;20531;-62
2024/01/18 05:35:05;;;;;;;34.88;14.90;;;-2.20;99.90;;;;;;5066643;28;20033;-61
2024/01/18 05:37:30;;;;;;;32.42;15.55;;;-2.30;99.90;;;;;;5066356;28;20582;-62
2024/01/18 05:39:56;;;;;;;28.20;14.52;;;-2.20;99.90;;;;;;5065557;28;20028;-62
2024/01/18 05:42:27;;;;;;;30.05;13.90;;;-2.20;99.90;;;;;;5066234;28;20151;-63
2024/01/18 05:44:53;;;;;;;29.75;14.80;;;-2.20;99.90;;;;;;5070475;28;20040;-62
2024/01/18 05:47:20;;;;;;;30.50;14.88;;;-2.20;99.90;;;;;;5066266;28;20043;-62
2024/01/18 05:49:46;;;;;;;30.20;14.57;;;-2.10;99.90;;;;;;5069059;28;20036;-62
2024/01/18 05:52:11;;;;;;;36.95;16.52;;;-2.10;99.90;;;;;;5069223;28;20043;-63
2024/01/18 05:54:37;;;;;;;27.48;14.38;;;-2.10;99.90;;;;;;5067570;28;20033;-59
2024/01/18 05:57:04;;;;;;;34.00;13.82;;;-2.10;99.90;;;;;;5064864;28;20048;-62
2024/01/18 05:59:30;;;;;;;29.00;13.13;;;-2.00;99.90;;;;;;5063957;28;20075;-62
2024/01/18 06:01:56;;;;;;;29.15;14.18;;;-2.00;99.90;;;;;;5046897;28;20120;-63
2024/01/18 06:04:22;;;;;;;32.10;15.65;;;-2.00;99.90;;;;;;5047298;28;20634;-60
2024/01/18 06:06:47;;;;;;;33.65;15.57;;;-2.00;99.90;;;;;;5045475;28;20045;-63
2024/01/18 06:09:16;;;;;;;30.38;16.25;;;-2.00;99.90;;;;;;5046513;28;20040;-63
2024/01/18 06:11:44;;;;;;;34.17;16.70;;;-2.00;99.90;;;;;;5045451;28;20388;-62
2024/01/18 06:14:09;;;;;;;36.72;15.25;;;-2.00;99.90;;;;;;5045672;28;20472;-62
2024/01/18 06:16:35;;;;;;;33.97;17.25;;;-2.00;99.90;;;;;;5044835;28;20040;-62
2024/01/18 06:19:01;;;;;;;42.08;20.77;;;-2.00;99.90;;;;;;5048408;28;20033;-63
2024/01/18 06:21:26;;;;;;;41.03;19.48;;;-1.90;99.90;;;;;;5044090;28;20037;-60
2024/01/18 06:23:52;;;;;;;34.28;18.48;;;-2.00;99.90;;;;;;5044745;28;20451;-63
2024/01/18 06:26:17;;;;;;;42.20;18.27;;;-2.00;99.90;;;;;;5044686;28;20413;-63
2024/01/18 06:28:43;;;;;;;37.08;19.20;;;-1.90;99.90;;;;;;5041773;28;20037;-63
2024/01/18 06:31:09;;;;;;;30.00;15.57;;;-1.90;99.90;;;;;;5044313;28;20033;-63
2024/01/18 06:33:35;;;;;;;37.15;19.17;;;-1.90;99.90;;;;;;5034238;28;20083;-62
2024/01/18 06:36:01;;;;;;;35.22;17.77;;;-1.90;99.90;;;;;;5030538;28;20045;-62
2024/01/18 06:38:28;;;;;;;42.80;19.17;;;-1.80;99.90;;;;;;5036370;28;20099;-63
2024/01/18 06:40:58;;;;;;;41.28;19.73;;;-1.90;99.90;;;;;;5030148;28;20045;-62
2024/01/18 06:43:25;;;;;;;42.97;19.40;;;-1.80;99.90;;;;;;5039045;28;20140;-62
2024/01/18 06:45:54;;;;;;;42.55;20.35;;;-1.80;99.90;;;;;;5034544;28;20054;-60
2024/01/18 06:48:20;;;;;;;40.05;19.73;;;-1.90;99.90;;;;;;5036281;28;20052;-60
2024/01/18 06:50:46;;;;;;;45.28;21.27;;;-1.90;99.90;;;;;;5031291;28;20496;-60
2024/01/18 06:53:12;;;;;;;34.03;16.65;;;-1.90;99.90;;;;;;5055605;22;20024;-65
2024/01/18 06:55:37;;;;;;;28.35;14.75;;;-1.90;99.90;;;;;;5002267;28;20436;-65
2024/01/18 06:58:03;;;;;;;32.35;14.80;;;-1.80;99.90;;;;;;5006799;28;20057;-64
2024/01/18 07:00:29;;;;;;;33.83;14.82;;;-1.80;99.90;;;;;;5001361;28;20034;-64
2024/01/18 07:02:54;;;;;;;27.92;13.38;;;-1.80;99.90;;;;;;5005864;28;20100;-64
2024/01/18 07:05:20;;;;;;;28.65;13.40;;;-1.90;99.90;;;;;;5019453;28;20087;-64
2024/01/18 07:07:46;;;;;;;29.55;13.80;;;-1.90;99.90;;;;;;5015685;28;20038;-65
2024/01/18 07:10:12;;;;;;;33.05;16.95;;;-1.90;99.90;;;;;;5013674;28;20033;-65
2024/01/18 07:12:38;;;;;;;39.08;19.85;;;-1.80;99.90;;;;;;5017227;28;20070;-64
2024/01/18 07:15:04;;;;;;;43.95;21.35;;;-1.80;99.90;;;;;;5016845;28;20095;-64
2024/01/18 07:17:30;;;;;;;46.40;20.25;;;-1.80;99.90;;;;;;5017035;28;20045;-64
2024/01/18 07:19:56;;;;;;;46.03;19.92;;;-1.80;99.90;;;;;;5019052;28;20048;-64
2024/01/18 07:22:22;;;;;;;39.92;18.98;;;-1.80;99.90;;;;;;5017899;28;20611;-64
2024/01/18 07:24:49;;;;;;;42.10;18.05;;;-1.70;99.90;;;;;;5021803;28;20037;-64
2024/01/18 07:27:15;;;;;;;38.97;18.95;;;-1.70;99.90;;;;;;5035546;28;20526;-65
2024/01/18 07:29:40;;;;;;;40.92;17.77;;;-1.70;99.90;;;;;;5031176;28;20044;-64
2024/01/18 07:32:06;;;;;;;31.25;13.23;;;-1.70;99.90;;;;;;5029536;28;20057;-64
2024/01/18 07:34:35;;;;;;;33.22;13.93;;;-1.70;99.90;;;;;;5028283;28;20036;-64
2024/01/18 07:37:01;;;;;;;28.13;12.68;;;-1.80;99.90;;;;;;5028470;28;20045;-64
2024/01/18 07:39:30;;;;;;;32.75;16.10;;;-1.80;99.90;;;;;;5031525;28;20045;-65
2024/01/18 07:41:56;;;;;;;39.53;16.27;;;-1.80;99.90;;;;;;5028166;28;20033;-64
2024/01/18 07:44:21;;;;;;;30.02;12.45;;;-1.70;99.90;;;;;;5029065;28;20044;-64
2024/01/18 07:46:47;;;;;;;26.75;12.85;;;-1.70;99.90;;;;;;5021422;28;20037;-64
2024/01/18 07:49:12;;;;;;;26.70;12.27;;;-1.80;99.90;;;;;;5029794;28;20045;-65
2024/01/18 07:51:38;;;;;;;32.30;14.05;;;-1.70;99.90;;;;;;5034044;28;20029;-64
2024/01/18 07:54:04;;;;;;;33.67;13.15;;;-1.70;99.90;;;;;;5029635;28;20046;-64
2024/01/18 07:56:30;;;;;;;30.73;13.48;;;-1.70;99.90;;;;;;5026815;28;20056;-64
2024/01/18 07:58:55;;;;;;;33.42;15.20;;;-1.70;99.90;;;;;;5027416;28;20124;-63
2024/01/18 08:01:21;;;;;;;36.50;15.35;;;-1.70;99.90;;;;;;5027901;28;20136;-67
2024/01/18 08:03:47;;;;;;;38.40;15.48;;;-1.80;99.90;;;;;;5027038;28;20045;-67
2024/01/18 08:06:13;;;;;;;31.85;14.18;;;-1.90;99.90;;;;;;5027391;28;20045;-67
2024/01/18 08:08:40;;;;;;;32.60;14.52;;;-2.00;99.90;;;;;;5030217;28;20073;-66
2024/01/18 08:11:17;;;;;;;40.42;15.57;;;-1.90;99.90;;;;;;5029167;28;20708;-64
2024/01/18 08:13:43;;;;;;;37.10;16.42;;;-1.90;99.90;;;;;;5029694;28;20065;-64
2024/01/18 08:16:09;;;;;;;32.28;15.00;;;-1.90;99.90;;;;;;5036085;28;20064;-64
2024/01/18 08:18:36;;;;;;;47.75;17.83;;;-1.90;99.90;;;;;;5028867;28;20077;-65
2024/01/18 08:21:05;;;;;;;38.75;16.75;;;-2.00;99.90;;;;;;5027623;28;20037;-65
2024/01/18 08:23:30;;;;;;;34.55;16.90;;;-2.00;99.90;;;;;;5029109;28;20087;-63
2024/01/18 08:25:56;;;;;;;43.00;18.17;;;-1.90;99.90;;;;;;5034404;28;20041;-66
2024/01/18 08:28:22;;;;;;;41.00;16.88;;;-1.90;99.90;;;;;;5029229;28;20497;-64
2024/01/18 08:30:48;;;;;;;40.42;17.13;;;-1.90;99.90;;;;;;5033583;28;20037;-64
2024/01/18 08:33:14;;;;;;;34.78;16.80;;;-1.90;99.90;;;;;;5029449;28;20515;-64
2024/01/18 08:35:40;;;;;;;43.17;17.75;;;-2.00;99.90;;;;;;5028031;28;20603;-64
2024/01/18 08:38:06;;;;;;;40.42;18.10;;;-1.90;99.90;;;;;;5031356;28;20033;-66
2024/01/18 08:40:32;;;;;;;43.22;18.75;;;-1.80;99.90;;;;;;5028670;28;20035;-66
2024/01/18 08:42:59;;;;;;;44.42;16.92;;;-1.80;99.90;;;;;;5029064;28;20083;-66
2024/01/18 08:45:24;;;;;;;35.22;16.67;;;-1.80;99.90;;;;;;5031699;28;20550;-66
2024/01/18 08:47:50;;;;;;;39.53;17.10;;;-1.80;99.90;;;;;;5029082;28;20036;-66
2024/01/18 08:50:15;;;;;;;45.08;19.42;;;-1.80;99.90;;;;;;5020744;28;20057;-64
2024/01/18 08:52:42;;;;;;;33.47;15.18;;;-1.70;99.90;;;;;;5025742;28;20496;-65
2024/01/18 08:55:08;;;;;;;35.30;15.10;;;-1.70;99.90;;;;;;5020329;28;20492;-66
2024/01/18 08:57:33;;;;;;;34.85;15.10;;;-1.60;99.90;;;;;;5012848;28;20045;-67
2024/01/18 08:59:59;;;;;;;33.20;14.52;;;-1.50;99.90;;;;;;5024833;28;20046;-66
2024/01/18 09:02:25;;;;;;;35.75;14.57;;;-1.50;99.90;;;;;;5018961;28;20420;-66
2024/01/18 09:04:50;;;;;;;28.30;13.48;;;-1.40;99.90;;;;;;5013142;28;20029;-66
2024/01/18 09:07:16;;;;;;;34.95;14.98;;;-1.40;99.90;;;;;;5021442;28;20048;-66
2024/01/18 09:09:44;;;;;;;30.95;13.98;;;-1.30;99.90;;;;;;5022206;28;20378;-66
2024/01/18 09:12:13;;;;;;;34.97;14.10;;;-1.30;99.90;;;;;;5014909;28;20072;-67
2024/01/18 09:14:39;;;;;;;43.58;14.75;;;-1.20;99.90;;;;;;5020129;28;20113;-66
2024/01/18 09:17:04;;;;;;;30.10;13.68;;;-1.30;99.90;;;;;;5018651;28;20499;-66
2024/01/18 09:19:33;;;;;;;36.75;15.20;;;-1.40;99.90;;;;;;5010686;28;20111;-66
2024/01/18 09:21:58;;;;;;;35.13;15.40;;;-1.40;99.90;;;;;;5025761;28;20616;-67
2024/01/18 09:24:24;;;;;;;33.65;16.02;;;-1.40;99.90;;;;;;5023510;28;20041;-67
2024/01/18 09:26:49;;;;;;;47.00;21.50;;;-1.50;99.90;;;;;;5029977;28;20053;-66
2024/01/18 09:29:15;;;;;;;45.17;19.15;;;-1.50;99.90;;;;;;5023201;28;20038;-66
2024/01/18 09:31:41;;;;;;;28.48;13.80;;;-1.40;99.90;;;;;;5025596;28;20041;-66
2024/01/18 09:34:07;;;;;;;32.45;15.95;;;-1.40;99.90;;;;;;5020234;28;20059;-66
2024/01/18 09:36:32;;;;;;;37.67;16.48;;;-1.50;99.90;;;;;;5030714;28;20041;-66
2024/01/18 09:38:58;;;;;;;36.78;15.52;;;-1.40;99.90;;;;;;5022553;28;20030;-66
2024/01/18 09:41:29;;;;;;;35.42;14.73;;;-1.50;99.90;;;;;;5024502;28;20088;-66
2024/01/18 09:44:00;;;;;;;34.83;14.60;;;-1.30;99.90;;;;;;5024934;28;20115;-66
2024/01/18 09:46:27;;;;;;;28.80;13.95;;;-1.30;99.90;;;;;;5020499;28;20049;-66
2024/01/18 09:48:53;;;;;;;28.75;12.68;;;-1.30;99.90;;;;;;5026047;28;20046;-66
2024/01/18 09:51:21;;;;;;;38.00;15.05;;;-1.30;99.90;;;;;;5024071;28;20040;-66
2024/01/18 09:53:49;;;;;;;30.23;13.27;;;-1.40;99.90;;;;;;5021328;28;20087;-66
2024/01/18 09:56:21;;;;;;;29.00;10.90;;;-1.50;99.90;;;;;;5023470;28;20539;-66
2024/01/18 09:58:47;;;;;;;29.38;13.60;;;-1.40;99.90;;;;;;5020388;28;20049;-66
2024/01/18 10:01:27;;;;;;;32.25;13.93;;;-1.40;99.90;;;;;;5013783;28;20061;-66
2024/01/18 10:04:01;;;;;;;39.92;14.20;;;-1.30;99.90;;;;;;5020440;28;20485;-67
2024/01/18 10:06:32;;;;;;;42.22;14.35;;;-1.20;99.90;;;;;;5025617;28;20118;-66
2024/01/18 10:09:05;;;;;;;29.73;13.90;;;-1.10;99.90;;;;;;5019901;28;20037;-67
2024/01/18 10:11:34;;;;;;;46.40;15.07;;;-0.90;99.90;;;;;;5033314;28;20063;-67
2024/01/18 10:14:08;;;;;;;33.20;14.63;;;-1.00;99.90;;;;;;5014928;28;20083;-67
2024/01/18 10:16:47;;;;;;;31.48;13.68;;;-1.20;99.90;;;;;;5015851;28;20042;-67
2024/01/18 10:19:14;;;;;;;28.08;13.02;;;-1.00;99.90;;;;;;5021249;28;20045;-66
2024/01/18 10:21:44;;;;;;;26.20;13.82;;;-1.00;99.90;;;;;;5029712;28;20618;-67
2024/01/18 10:24:17;;;;;;;30.48;13.55;;;-0.80;99.90;;;;;;5022512;28;20117;-67
2024/01/18 10:26:48;;;;;;;32.80;12.85;;;-0.70;99.90;;;;;;5024956;28;20203;-66
2024/01/18 10:29:19;;;;;;;26.23;12.32;;;-0.70;99.90;;;;;;5016889;28;20116;-66
2024/01/18 10:31:45;;;;;;;22.85;11.02;;;-0.80;99.90;;;;;;5024538;28;20048;-67
2024/01/18 10:34:13;;;;;;;22.48;11.63;;;-0.90;99.90;;;;;;5027225;28;20493;-66
2024/01/18 10:36:45;;;;;;;35.38;14.10;;;-0.80;99.90;;;;;;5028285;28;20048;-67
2024/01/18 10:39:17;;;;;;;25.98;12.98;;;-0.80;99.90;;;;;;5018351;28;20998;-67
2024/01/18 10:41:44;;;;;;;34.72;14.77;;;-1.00;99.90;;;;;;5027202;28;20045;-66
2024/01/18 10:44:15;;;;;;;25.70;11.57;;;-1.00;99.90;;;;;;5031042;28;20048;-66
2024/01/18 10:46:45;;;;;;;25.63;11.88;;;-0.70;99.90;;;;;;5029018;28;20094;-67
2024/01/18 10:49:15;;;;;;;35.60;13.65;;;-0.60;99.90;;;;;;5027899;28;20420;-67
2024/01/18 10:51:46;;;;;;;28.85;11.85;;;-0.80;99.90;;;;;;5035880;28;20126;-65
2024/01/18 10:54:21;;;;;;;30.30;13.68;;;-0.60;99.90;;;;;;5019647;28;20523;-65
2024/01/18 10:56:47;;;;;;;23.42;10.85;;;-0.40;99.90;;;;;;5017760;28;20081;-66
2024/01/18 10:59:18;;;;;;;32.65;15.30;;;-0.50;99.90;;;;;;5011536;28;20062;-66
2024/01/18 11:01:47;;;;;;;23.23;10.57;;;-0.70;99.90;;;;;;5020675;28;20037;-65
2024/01/18 11:04:28;;;;;;;20.23;9.25;;;-0.70;99.90;;;;;;5016643;28;20037;-67
2024/01/18 11:07:07;;;;;;;27.25;12.50;;;-0.70;99.90;;;;;;5023014;28;20037;-73
2024/01/18 11:09:36;;;;;;;23.17;9.98;;;-0.60;99.90;;;;;;5016401;28;20110;-68
2024/01/18 11:12:11;;;;;;;25.75;12.07;;;-0.80;99.90;;;;;;5027886;28;20041;-70
2024/01/18 11:14:40;;;;;;;24.17;8.40;;;-0.60;99.90;;;;;;5026024;28;20527;-69
2024/01/18 11:17:36;;;;;;;18.15;9.45;;;-0.50;99.90;;;;;;5021150;28;20126;-66
2024/01/18 11:20:08;;;;;;;20.20;9.70;;;-0.50;99.90;;;;;;5023759;28;20088;-64
2024/01/18 11:22:35;;;;;;;21.48;8.73;;;-0.60;99.90;;;;;;5018644;28;20076;-64
2024/01/18 11:25:09;;;;;;;21.50;11.68;;;-0.70;99.90;;;;;;5020742;28;20104;-64
2024/01/18 11:27:43;;;;;;;17.02;9.27;;;-0.50;99.90;;;;;;5017778;28;20095;-64
2024/01/18 11:30:32;;;;;;;19.60;10.18;;;-0.40;99.90;;;;;;5018689;28;20091;-65
2024/01/18 11:32:58;;;;;;;20.25;8.27;;;-0.50;99.90;;;;;;5026892;28;20045;-66
2024/01/18 11:35:24;;;;;;;32.45;11.90;;;-0.60;99.90;;;;;;5024664;28;20037;-64
2024/01/18 11:37:50;;;;;;;21.67;8.77;;;-0.40;99.90;;;;;;5022120;28;20080;-64
2024/01/18 11:40:18;;;;;;;25.40;12.05;;;-0.40;99.90;;;;;;5022491;28;20073;-64
2024/01/18 11:42:45;;;;;;;20.95;10.10;;;-0.20;99.90;;;;;;5022330;28;20106;-64
2024/01/18 11:45:18;;;;;;;33.05;14.70;;;-0.20;99.90;;;;;;5023895;28;20048;-64
2024/01/18 11:47:44;;;;;;;26.85;13.18;;;-0.10;99.90;;;;;;5023155;28;20127;-64
2024/01/18 11:50:11;;;;;;;21.63;9.30;;;0.00;99.90;;;;;;5013503;28;20041;-64
2024/01/18 11:52:39;;;;;;;15.63;8.10;;;-0.10;99.90;;;;;;5020192;28;20120;-64
2024/01/18 11:55:05;;;;;;;18.65;8.18;;;0.00;99.90;;;;;;5020395;28;20046;-64
2024/01/18 11:57:32;;;;;;;25.45;11.10;;;0.10;99.90;;;;;;5027608;28;20436;-64
2024/01/18 11:59:59;;;;;;;87.20;34.53;;;0.30;99.90;;;;;;5025477;28;20659;-64
2024/01/18 12:02:28;;;;;;;30.70;12.90;;;0.30;99.90;;;;;;5020204;28;20041;-63
2024/01/18 12:04:54;;;;;;;15.10;6.35;;;0.30;99.90;;;;;;5020130;28;20647;-64
2024/01/18 12:07:20;;;;;;;31.38;13.68;;;0.40;99.90;;;;;;5015801;28;20490;-64
2024/01/18 12:09:46;;;;;;;15.25;6.32;;;0.40;99.90;;;;;;5025236;28;20049;-64
2024/01/18 12:12:12;;;;;;;21.40;9.98;;;0.50;99.90;;;;;;5020366;28;20052;-64
2024/01/18 12:14:40;;;;;;;19.65;8.40;;;0.50;99.90;;;;;;5023526;28;20099;-64
2024/01/18 12:17:11;;;;;;;27.00;10.30;;;0.40;99.90;;;;;;5018499;28;20119;-64
2024/01/18 12:19:38;;;;;;;23.17;10.02;;;0.40;99.90;;;;;;5026336;28;20045;-64
2024/01/18 12:22:11;;;;;;;19.48;8.45;;;0.50;99.90;;;;;;5024098;28;20033;-64
2024/01/18 12:24:37;;;;;;;15.25;7.57;;;0.40;99.90;;;;;;5029927;28;20045;-64
2024/01/18 12:27:06;;;;;;;15.75;6.72;;;0.30;99.90;;;;;;5024224;28;20115;-65